Key West, FL

10:21 PM EDT on August 27, 2016 (GMT -0400)
Key West International | | Change Station

Elev 0 ft 24.56 °N, 81.75 °W | Updated 28 minutes ago

Clear
Clear
81 °F
Feels Like 89 °F
N
8
Wind Variable Wind from NE

Today
High -- | Low -- °F
--% Chance of Precip.
Yesterday
High -- | Low -- °F
Precip. -- in
Pressure 29.89 in
Visibility 10.0 miles
Clouds Clear
Heat Index 89 °F
Dew Point 79 °F
Humidity 94%
Rainfall 1.12 in
Snow Depth Not available.
7:06 AM 7:49 PM
Waning Crescent, 19% visible
METAR KEYW 280153Z AUTO 05007KT 10SM CLR 27/26 A2989 RMK AO2 SLP121 T02720261 $
Pressure 29.89 in
Visibility 10.0 miles
Clouds Clear
Heat Index 89 °F
Dew Point 79 °F
Humidity 94%
Rainfall 1.12 in
Snow Depth Not available.
7:06 AM 7:49 PM
Waning Crescent, 19% visible
METAR KEYW 280153Z AUTO 05007KT 10SM CLR 27/26 A2989 RMK AO2 SLP121 T02720261 $

10-Day Weather Forecast

Almanac

Astronomy

Aug. 27, 2016 Rise Set
Actual Time
Civil Twilight
Nautical Twilight
Astronomical Twilight
Moon
Length of Visible Light
Length of Day
Tomorrow will be .
, % of the Moon is Illuminated

Today's Extremes

State Highs State Lows

Community

WunderPhotos

Upload Photos

1,935,496 photos uploaded!

WunderBlog® & News

Nearby

Air Quality

  Air Quality AQ Index Pollutant
Not available.

Snow Depth

Station Depth Elevation

Earthquake Activity

City Distance Mag. Time & Date
Minimum magnitude displayed is 2.5.

Coastal Water Temperatures

Place Temperature

Stations

Nearby Weather Stations

Station Location Temp. Windchill Dew Point Humidity Wind Precip. Elev Updated Type
                   

Watches & Warnings

There are currently no watches in effect.